Time;durP1;ratioP1;P1;durP2;ratioP2;P2;SDS_P1;SDS_P2;PMS_P1;PMS_P2;Temp;Humidity;BMP_temperature;BMP_pressure;BME280_temperature;BME280_humidity;BME280_pressure;Samples;Min_cycle;Max_cycle;Signal;HPM_P1;HPM_P2
2023/10/30 00:00:28;;;;;;;;;;;;;;;;;;112478;210;39737;-41
2023/10/30 00:03:22;;;;;;;;;;;;;;;;;;112434;210;45352;-40
2023/10/30 00:06:00;;;;;;;;;;;;;;;;;;112442;210;42971;-41
2023/10/30 00:08:32;;;;;;;;;;;;;;;;;;112387;210;44369;-40
2023/10/30 00:11:08;;;;;;;;;;;;;;;;;;112421;210;39761;-40
2023/10/30 00:13:41;;;;;;;;;;;;;;;;;;112368;210;42860;-41
2023/10/30 00:16:14;;;;;;;;;;;;;;;;;;112429;210;43055;-40
2023/10/30 00:18:47;;;;;;;;;;;;;;;;;;112386;210;44574;-40
2023/10/30 00:21:20;;;;;;;;;;;;;;;;;;112456;210;39288;-40
2023/10/30 00:23:53;;;;;;;;;;;;;;;;;;112448;210;42828;-40
2023/10/30 00:26:27;;;;;;;;;;;;;;;;;;112440;210;41768;-41
2023/10/30 00:29:06;;;;;;;;;;;;;;;;;;112360;210;44838;-40
2023/10/30 00:31:42;;;;;;;;;;;;;;;;;;112445;210;39818;-40
2023/10/30 00:34:16;;;;;;;;;;;;;;;;;;112436;210;43124;-40
2023/10/30 00:36:50;;;;;;;;;;;;;;;;;;112449;210;41612;-40
2023/10/30 00:39:22;;;;;;;;;;;;;;;;;;112456;210;46536;-40
2023/10/30 00:41:57;;;;;;;;;;;;;;;;;;112482;210;39426;-40
2023/10/30 00:44:30;;;;;;;;;;;;;;;;;;112451;210;42812;-40
2023/10/30 00:47:04;;;;;;;;;;;;;;;;;;112489;210;41847;-40
2023/10/30 00:49:36;;;;;;;;;;;;;;;;;;112544;210;44432;-40
2023/10/30 00:52:12;;;;;;;;;;;;;;;;;;112472;210;39895;-40
2023/10/30 00:54:44;;;;;;;;;;;;;;;;;;112408;210;42958;-40
2023/10/30 00:57:22;;;;;;;;;;;;;;;;;;112445;210;41795;-40
2023/10/30 00:59:55;;;;;;;;;;;;;;;;;;112479;210;44581;-41
2023/10/30 01:02:36;;;;;;;;;;;;;;;;;;112385;210;39617;-40
2023/10/30 01:05:11;;;;;;;;;;;;;;;;;;112389;210;42768;-41
2023/10/30 01:07:46;;;;;;;;;;;;;;;;;;112439;210;41959;-40
2023/10/30 01:10:19;;;;;;;;;;;;;;;;;;112480;210;38468;-40
2023/10/30 01:12:53;;;;;;;;;;;;;;;;;;112481;210;39595;-40
2023/10/30 01:15:28;;;;;;;;;;;;;;;;;;112432;210;42940;-41
2023/10/30 01:18:01;;;;;;;;;;;;;;;;;;112433;210;41783;-40
2023/10/30 01:20:40;;;;;;;;;;;;;;;;;;112399;210;46028;-43
2023/10/30 01:23:19;;;;;;;;;;;;;;;;;;112494;210;39659;-42
2023/10/30 01:25:53;;;;;;;;;;;;;;;;;;112474;210;43132;-37
2023/10/30 01:28:30;;;;;;;;;;;;;;;;;;112448;210;41862;-37
2023/10/30 01:31:06;;;;;;;;;;;;;;;;;;112452;210;38830;-44
2023/10/30 01:33:43;;;;;;;;;;;;;;;;;;112464;210;39590;-42
2023/10/30 01:36:16;;;;;;;;;;;;;;;;;;112436;210;42814;-43
2023/10/30 01:38:51;;;;;;;;;;;;;;;;;;112395;210;42659;-42
2023/10/30 01:41:25;;;;;;;;;;;;;;;;;;112472;210;39196;-45
2023/10/30 01:44:01;;;;;;;;;;;;;;;;;;112406;210;40880;-43
2023/10/30 01:46:36;;;;;;;;;;;;;;;;;;112438;210;42842;-42
2023/10/30 01:49:11;;;;;;;;;;;;;;;;;;112245;210;176814;-42
2023/10/30 01:51:44;;;;;;;;;;;;;;;;;;112490;210;40102;-43
2023/10/30 01:54:18;;;;;;;;;;;;;;;;;;112488;210;41000;-43
2023/10/30 01:56:51;;;;;;;;;;;;;;;;;;112366;210;175625;-42
2023/10/30 01:59:26;;;;;;;;;;;;;;;;;;112417;210;43323;-42
2023/10/30 02:02:02;;;;;;;;;;;;;;;;;;112425;210;38910;-42
2023/10/30 02:04:36;;;;;;;;;;;;;;;;;;112565;210;39397;-43
2023/10/30 02:07:14;;;;;;;;;;;;;;;;;;112492;210;42809;-42
2023/10/30 02:09:51;;;;;;;;;;;;;;;;;;112423;210;43190;-42
2023/10/30 02:12:27;;;;;;;;;;;;;;;;;;112427;210;38867;-42
2023/10/30 02:15:03;;;;;;;;;;;;;;;;;;112456;210;39593;-42
2023/10/30 02:17:39;;;;;;;;;;;;;;;;;;112437;210;42889;-42
2023/10/30 02:20:14;;;;;;;;;;;;;;;;;;112368;210;41767;-43
2023/10/30 02:22:47;;;;;;;;;;;;;;;;;;112467;210;39092;-42
2023/10/30 02:25:22;;;;;;;;;;;;;;;;;;112498;210;40151;-42
2023/10/30 02:28:01;;;;;;;;;;;;;;;;;;112495;210;42996;-42
2023/10/30 02:30:33;;;;;;;;;;;;;;;;;;112454;210;40794;-43
2023/10/30 02:33:06;;;;;;;;;;;;;;;;;;112428;210;40280;-43
2023/10/30 02:35:39;;;;;;;;;;;;;;;;;;112493;210;39644;-42
2023/10/30 02:38:13;;;;;;;;;;;;;;;;;;112466;210;42940;-42
2023/10/30 02:40:45;;;;;;;;;;;;;;;;;;112404;210;42818;-42
2023/10/30 02:43:22;;;;;;;;;;;;;;;;;;112460;210;38981;-42
2023/10/30 02:45:55;;;;;;;;;;;;;;;;;;112432;210;39995;-42
2023/10/30 02:48:34;;;;;;;;;;;;;;;;;;112518;210;42877;-43
2023/10/30 02:51:09;;;;;;;;;;;;;;;;;;112377;210;41717;-42
2023/10/30 02:53:42;;;;;;;;;;;;;;;;;;112067;210;538873;-43
2023/10/30 02:56:17;;;;;;;;;;;;;;;;;;112460;210;39811;-43
2023/10/30 02:58:50;;;;;;;;;;;;;;;;;;112463;210;42955;-42
2023/10/30 03:01:24;;;;;;;;;;;;;;;;;;112430;210;41887;-42
2023/10/30 03:04:01;;;;;;;;;;;;;;;;;;112435;210;38839;-42
2023/10/30 03:06:38;;;;;;;;;;;;;;;;;;112437;211;39901;-42
2023/10/30 03:09:11;;;;;;;;;;;;;;;;;;112475;210;42938;-43
2023/10/30 03:11:46;;;;;;;;;;;;;;;;;;112380;210;41655;-43
2023/10/30 03:14:20;;;;;;;;;;;;;;;;;;112503;211;38476;-42
2023/10/30 03:16:53;;;;;;;;;;;;;;;;;;112462;210;39784;-42
2023/10/30 03:19:25;;;;;;;;;;;;;;;;;;112492;210;42568;-43
2023/10/30 03:21:58;;;;;;;;;;;;;;;;;;112452;210;42767;-42
2023/10/30 03:24:34;;;;;;;;;;;;;;;;;;112476;210;39450;-43
2023/10/30 03:27:07;;;;;;;;;;;;;;;;;;112459;210;39661;-42
2023/10/30 03:29:42;;;;;;;;;;;;;;;;;;112427;210;42972;-42
2023/10/30 03:32:14;;;;;;;;;;;;;;;;;;112451;210;41553;-42
2023/10/30 03:34:52;;;;;;;;;;;;;;;;;;112482;210;39998;-42
2023/10/30 03:37:31;;;;;;;;;;;;;;;;;;112439;210;40856;-42
2023/10/30 03:40:10;;;;;;;;;;;;;;;;;;112436;210;43374;-42
2023/10/30 03:42:44;;;;;;;;;;;;;;;;;;112389;210;41627;-42
2023/10/30 03:45:18;;;;;;;;;;;;;;;;;;112489;210;38541;-42
2023/10/30 03:47:52;;;;;;;;;;;;;;;;;;112471;210;39635;-43
2023/10/30 03:50:27;;;;;;;;;;;;;;;;;;112422;210;42802;-42
2023/10/30 03:53:00;;;;;;;;;;;;;;;;;;112417;210;41663;-43
2023/10/30 03:55:34;;;;;;;;;;;;;;;;;;112453;210;38919;-42
2023/10/30 03:58:07;;;;;;;;;;;;;;;;;;112516;210;39796;-42
2023/10/30 04:00:47;;;;;;;;;;;;;;;;;;112429;210;42819;-43
2023/10/30 04:03:21;;;;;;;;;;;;;;;;;;112422;210;41588;-42
2023/10/30 04:05:53;;;;;;;;;;;;;;;;;;112487;210;38713;-43
2023/10/30 04:08:26;;;;;;;;;;;;;;;;;;112477;210;39606;-42
2023/10/30 04:10:59;;;;;;;;;;;;;;;;;;112479;210;42830;-43
2023/10/30 04:13:36;;;;;;;;;;;;;;;;;;112406;210;41955;-43
2023/10/30 04:16:12;;;;;;;;;;;;;;;;;;112454;210;38858;-42
2023/10/30 04:18:45;;;;;;;;;;;;;;;;;;112516;210;39591;-42
2023/10/30 04:21:18;;;;;;;;;;;;;;;;;;112511;210;42974;-42
2023/10/30 04:23:52;;;;;;;;;;;;;;;;;;112477;210;41767;-42
2023/10/30 04:26:34;;;;;;;;;;;;;;;;;;112471;210;38828;-42
2023/10/30 04:29:06;;;;;;;;;;;;;;;;;;112463;210;41082;-42
2023/10/30 04:31:39;;;;;;;;;;;;;;;;;;112483;210;43015;-43
2023/10/30 04:34:13;;;;;;;;;;;;;;;;;;112390;210;47548;-43
2023/10/30 04:36:50;;;;;;;;;;;;;;;;;;112495;210;38717;-42
2023/10/30 04:39:22;;;;;;;;;;;;;;;;;;112488;210;39899;-42
2023/10/30 04:41:56;;;;;;;;;;;;;;;;;;112437;210;42773;-43
2023/10/30 04:44:33;;;;;;;;;;;;;;;;;;112333;210;47474;-42
2023/10/30 04:47:14;;;;;;;;;;;;;;;;;;112415;210;38841;-43
2023/10/30 04:49:53;;;;;;;;;;;;;;;;;;112456;210;39629;-42
2023/10/30 04:52:32;;;;;;;;;;;;;;;;;;112441;210;43027;-44
2023/10/30 04:55:05;;;;;;;;;;;;;;;;;;112466;210;47905;-42
2023/10/30 04:57:37;;;;;;;;;;;;;;;;;;112495;210;38833;-44
2023/10/30 05:00:13;;;;;;;;;;;;;;;;;;112454;210;39521;-42
2023/10/30 05:02:47;;;;;;;;;;;;;;;;;;112474;210;42943;-42
2023/10/30 05:05:21;;;;;;;;;;;;;;;;;;112427;210;47926;-42
2023/10/30 05:07:55;;;;;;;;;;;;;;;;;;112499;210;38899;-43
2023/10/30 05:10:29;;;;;;;;;;;;;;;;;;112498;210;39605;-43
2023/10/30 05:13:07;;;;;;;;;;;;;;;;;;112446;210;42767;-47
2023/10/30 05:15:42;;;;;;;;;;;;;;;;;;112479;210;47880;-42
2023/10/30 05:18:17;;;;;;;;;;;;;;;;;;112463;210;39074;-42
2023/10/30 05:20:49;;;;;;;;;;;;;;;;;;112459;210;39698;-43
2023/10/30 05:23:25;;;;;;;;;;;;;;;;;;112465;210;44180;-42
2023/10/30 05:26:03;;;;;;;;;;;;;;;;;;112428;210;47996;-42
2023/10/30 05:28:41;;;;;;;;;;;;;;;;;;112446;210;39977;-42
2023/10/30 05:31:20;;;;;;;;;;;;;;;;;;112407;210;40866;-44
2023/10/30 05:33:54;;;;;;;;;;;;;;;;;;112360;210;44118;-42
2023/10/30 05:36:31;;;;;;;;;;;;;;;;;;112420;210;41796;-42
2023/10/30 05:39:08;;;;;;;;;;;;;;;;;;112350;210;175686;-41
2023/10/30 05:41:42;;;;;;;;;;;;;;;;;;112463;210;39888;-40
2023/10/30 05:44:18;;;;;;;;;;;;;;;;;;112485;210;44051;-40
2023/10/30 05:46:54;;;;;;;;;;;;;;;;;;112410;210;43111;-43
2023/10/30 05:49:34;;;;;;;;;;;;;;;;;;112431;210;38796;-42
2023/10/30 05:52:09;;;;;;;;;;;;;;;;;;112248;210;39799;-42
2023/10/30 05:54:43;;;;;;;;;;;;;;;;;;112416;210;43222;-42
2023/10/30 05:57:20;;;;;;;;;;;;;;;;;;112395;210;41726;-44
2023/10/30 05:59:55;;;;;;;;;;;;;;;;;;112426;210;38839;-42
2023/10/30 06:02:28;;;;;;;;;;;;;;;;;;112435;210;39990;-42
2023/10/30 06:05:14;;;;;;;;;;;;;;;;;;112494;210;42830;-42
2023/10/30 06:07:47;;;;;;;;;;;;;;;;;;112522;210;41871;-42
2023/10/30 06:10:23;;;;;;;;;;;;;;;;;;112478;210;39889;-42
2023/10/30 06:12:55;;;;;;;;;;;;;;;;;;112547;210;39526;-42
2023/10/30 06:15:31;;;;;;;;;;;;;;;;;;112504;210;42604;-42
2023/10/30 06:18:06;;;;;;;;;;;;;;;;;;112500;210;43053;-42
2023/10/30 06:20:44;;;;;;;;;;;;;;;;;;112502;210;38744;-42
2023/10/30 06:23:19;;;;;;;;;;;;;;;;;;112513;210;39630;-42
2023/10/30 06:25:54;;;;;;;;;;;;;;;;;;112509;210;42856;-42
2023/10/30 06:28:27;;;;;;;;;;;;;;;;;;112558;210;41623;-42
2023/10/30 06:31:04;;;;;;;;;;;;;;;;;;112551;210;38969;-42
2023/10/30 06:33:39;;;;;;;;;;;;;;;;;;112523;210;39917;-43
2023/10/30 06:36:23;;;;;;;;;;;;;;;;;;112425;210;43145;-42
2023/10/30 06:38:55;;;;;;;;;;;;;;;;;;112491;210;41873;-43
2023/10/30 06:41:28;;;;;;;;;;;;;;;;;;112476;210;39316;-42
2023/10/30 06:44:00;;;;;;;;;;;;;;;;;;112449;210;39615;-43
2023/10/30 06:46:35;;;;;;;;;;;;;;;;;;112553;210;42850;-41
2023/10/30 06:49:17;;;;;;;;;;;;;;;;;;112434;210;41824;-40
2023/10/30 06:51:49;;;;;;;;;;;;;;;;;;112454;210;38698;-38
2023/10/30 06:54:24;;;;;;;;;;;;;;;;;;112398;210;39792;-38
2023/10/30 06:57:01;;;;;;;;;;;;;;;;;;112605;210;29056;-39
2023/10/30 06:59:34;;;;;;;;;;;;;;;;;;112264;210;41739;-38
2023/10/30 07:02:09;;;;;;;;;;;;;;;;;;112316;210;38761;-37
2023/10/30 07:04:48;;;;;;;;;;;;;;;;;;112381;210;39919;-37
2023/10/30 07:07:24;;;;;;;;;;;;;;;;;;112382;210;42945;-38
2023/10/30 07:10:00;;;;;;;;;;;;;;;;;;112412;210;41741;-38
2023/10/30 07:12:35;;;;;;;;;;;;;;;;;;112341;210;38682;-38
2023/10/30 07:15:14;;;;;;;;;;;;;;;;;;112391;210;39465;-38
2023/10/30 07:17:49;;;;;;;;;;;;;;;;;;112354;210;43042;-38
2023/10/30 07:20:26;;;;;;;;;;;;;;;;;;112358;210;41653;-37
2023/10/30 07:23:01;;;;;;;;;;;;;;;;;;112426;210;38619;-37
2023/10/30 07:25:35;;;;;;;;;;;;;;;;;;112395;210;39346;-37
2023/10/30 07:28:09;;;;;;;;;;;;;;;;;;112343;210;42838;-38
2023/10/30 07:30:48;;;;;;;;;;;;;;;;;;112431;210;42980;-39
2023/10/30 07:33:21;;;;;;;;;;;;;;;;;;112336;210;175700;-37
2023/10/30 07:36:01;;;;;;;;;;;;;;;;;;112519;210;39770;-37
2023/10/30 07:38:32;;;;;;;;;;;;;;;;;;112533;210;49335;-37
2023/10/30 07:41:10;;;;;;;;;;;;;;;;;;112467;211;42805;-37
2023/10/30 07:43:42;;;;;;;;;;;;;;;;;;112457;210;38867;-37
2023/10/30 07:46:17;;;;;;;;;;;;;;;;;;112386;211;41051;-38
2023/10/30 07:48:50;;;;;;;;;;;;;;;;;;112370;211;50345;-38
2023/10/30 07:51:23;;;;;;;;;;;;;;;;;;112469;210;41854;-38
2023/10/30 07:53:57;;;;;;;;;;;;;;;;;;112455;211;38855;-36
2023/10/30 07:56:31;;;;;;;;;;;;;;;;;;112436;211;39628;-39
2023/10/30 07:59:05;;;;;;;;;;;;;;;;;;112348;211;48815;-37
2023/10/30 08:01:45;;;;;;;;;;;;;;;;;;112395;211;42845;-38
2023/10/30 08:04:24;;;;;;;;;;;;;;;;;;111732;210;894319;-43
2023/10/30 08:06:56;;;;;;;;;;;;;;;;;;112405;210;39643;-46
2023/10/30 08:09:30;;;;;;;;;;;;;;;;;;112564;210;50430;-35
2023/10/30 08:12:03;;;;;;;;;;;;;;;;;;112579;210;41653;-37
2023/10/30 08:14:39;;;;;;;;;;;;;;;;;;112579;210;38868;-38
2023/10/30 08:17:14;;;;;;;;;;;;;;;;;;112548;210;39375;-37
2023/10/30 08:19:53;;;;;;;;;;;;;;;;;;112509;210;49045;-35
2023/10/30 08:22:29;;;;;;;;;;;;;;;;;;112592;210;41841;-38
2023/10/30 08:25:03;;;;;;;;;;;;;;;;;;111909;210;895227;-37
2023/10/30 08:27:36;;;;;;;;;;;;;;;;;;112529;210;40986;-38
2023/10/30 08:30:20;;;;;;;;;;;;;;;;;;111931;210;894406;-36
2023/10/30 08:32:53;;;;;;;;;;;;;;;;;;112650;210;44113;-40
2023/10/30 08:35:31;;;;;;;;;;;;;;;;;;112514;210;38749;-39
2023/10/30 08:38:11;;;;;;;;;;;;;;;;;;112510;210;39820;-36
2023/10/30 08:40:45;;;;;;;;;;;;;;;;;;112451;210;43292;-38
2023/10/30 08:43:18;;;;;;;;;;;;;;;;;;112499;210;41680;-37
2023/10/30 08:45:53;;;;;;;;;;;;;;;;;;112500;210;39119;-36
2023/10/30 08:48:30;;;;;;;;;;;;;;;;;;112425;210;41716;-38
2023/10/30 08:51:07;;;;;;;;;;;;;;;;;;112460;210;42936;-42
2023/10/30 08:53:42;;;;;;;;;;;;;;;;;;112508;210;41772;-42
2023/10/30 08:56:20;;;;;;;;;;;;;;;;;;112361;210;38717;-37
2023/10/30 08:58:58;;;;;;;;;;;;;;;;;;112325;210;175649;-39
2023/10/30 09:01:34;;;;;;;;;;;;;;;;;;112499;210;42988;-42
2023/10/30 09:04:10;;;;;;;;;;;;;;;;;;112482;210;41797;-37
2023/10/30 09:06:48;;;;;;;;;;;;;;;;;;112503;210;38701;-37
2023/10/30 09:09:20;;;;;;;;;;;;;;;;;;112458;210;39413;-37
2023/10/30 09:12:01;;;;;;;;;;;;;;;;;;112480;210;43090;-37
2023/10/30 09:14:36;;;;;;;;;;;;;;;;;;112508;210;41660;-37
2023/10/30 09:17:14;;;;;;;;;;;;;;;;;;112527;210;38929;-37
2023/10/30 09:19:52;;;;;;;;;;;;;;;;;;112439;210;39410;-37
2023/10/30 09:22:29;;;;;;;;;;;;;;;;;;112479;210;42762;-38
2023/10/30 09:25:09;;;;;;;;;;;;;;;;;;112414;210;41795;-37
2023/10/30 09:27:47;;;;;;;;;;;;;;;;;;112435;210;38860;-37
2023/10/30 09:30:27;;;;;;;;;;;;;;;;;;112353;210;39409;-38
2023/10/30 09:33:10;;;;;;;;;;;;;;;;;;112413;210;42887;-37
2023/10/30 09:35:46;;;;;;;;;;;;;;;;;;112382;210;41398;-37
2023/10/30 09:38:21;;;;;;;;;;;;;;;;;;112393;210;38755;-37
2023/10/30 09:41:04;;;;;;;;;;;;;;;;;;112387;210;39312;-36
2023/10/30 09:43:42;;;;;;;;;;;;;;;;;;112457;210;44225;-37
2023/10/30 09:46:21;;;;;;;;;;;;;;;;;;112400;210;41655;-37
2023/10/30 09:48:57;;;;;;;;;;;;;;;;;;112460;210;39144;-37
2023/10/30 09:51:33;;;;;;;;;;;;;;;;;;112422;210;39655;-37
2023/10/30 09:54:09;;;;;;;;;;;;;;;;;;112418;210;42979;-38
2023/10/30 09:56:49;;;;;;;;;;;;;;;;;;112473;210;41940;-35
2023/10/30 09:59:25;;;;;;;;;;;;;;;;;;112455;210;38875;-35
2023/10/30 10:01:59;;;;;;;;;;;;;;;;;;112445;210;39648;-36
2023/10/30 10:04:34;;;;;;;;;;;;;;;;;;112411;210;42805;-35
2023/10/30 10:07:11;;;;;;;;;;;;;;;;;;112458;210;41389;-36
2023/10/30 10:10:03;;;;;;;;;;;;;;;;;;112408;210;38682;-36
2023/10/30 10:12:37;;;;;;;;;;;;;;;;;;112444;210;39880;-36
2023/10/30 10:15:14;;;;;;;;;;;;;;;;;;112457;210;44041;-37
2023/10/30 10:17:49;;;;;;;;;;;;;;;;;;112458;210;41647;-36
2023/10/30 10:20:28;;;;;;;;;;;;;;;;;;112415;210;39967;-37
2023/10/30 10:23:04;;;;;;;;;;;;;;;;;;112447;210;39611;-39
2023/10/30 10:25:57;;;;;;;;;;;;;;;;;;112472;210;44047;-39
2023/10/30 10:28:31;;;;;;;;;;;;;;;;;;112289;210;42733;-37
2023/10/30 10:31:08;;;;;;;;;;;;;;;;;;112295;210;175664;-37
2023/10/30 10:33:43;;;;;;;;;;;;;;;;;;112465;210;40877;-38
2023/10/30 10:36:16;;;;;;;;;;;;;;;;;;112422;210;42815;-37
2023/10/30 10:39:01;;;;;;;;;;;;;;;;;;112422;210;43051;-37
2023/10/30 10:41:39;;;;;;;;;;;;;;;;;;112372;210;38467;-38
2023/10/30 10:44:15;;;;;;;;;;;;;;;;;;112415;210;40615;-36
2023/10/30 10:46:52;;;;;;;;;;;;;;;;;;112369;210;42625;-37
2023/10/30 10:49:29;;;;;;;;;;;;;;;;;;112366;210;41626;-37
2023/10/30 10:52:05;;;;;;;;;;;;;;;;;;112323;210;40018;-39
2023/10/30 10:54:47;;;;;;;;;;;;;;;;;;111877;210;593055;-37
2023/10/30 10:57:22;;;;;;;;;;;;;;;;;;112398;210;43207;-37
2023/10/30 11:00:00;;;;;;;;;;;;;;;;;;112394;210;41662;-38
2023/10/30 11:02:40;;;;;;;;;;;;;;;;;;112403;210;38916;-36
2023/10/30 11:05:22;;;;;;;;;;;;;;;;;;112442;210;39621;-36
2023/10/30 11:08:02;;;;;;;;;;;;;;;;;;112383;210;42931;-38
2023/10/30 11:10:40;;;;;;;;;;;;;;;;;;112423;210;42957;-39
2023/10/30 11:13:19;;;;;;;;;;;;;;;;;;112237;210;175623;-36
2023/10/30 11:16:01;;;;;;;;;;;;;;;;;;112350;210;39751;-37
2023/10/30 11:18:41;;;;;;;;;;;;;;;;;;112385;210;42837;-36
2023/10/30 11:21:19;;;;;;;;;;;;;;;;;;112385;210;41547;-39
2023/10/30 11:23:58;;;;;;;;;;;;;;;;;;112389;210;38713;-36
2023/10/30 11:26:43;;;;;;;;;;;;;;;;;;112418;210;39981;-36
2023/10/30 11:29:18;;;;;;;;;;;;;;;;;;112323;210;42841;-38
2023/10/30 11:31:59;;;;;;;;;;;;;;;;;;112345;210;41674;-37
2023/10/30 11:34:39;;;;;;;;;;;;;;;;;;112482;210;38498;-38
2023/10/30 11:37:15;;;;;;;;;;;;;;;;;;112477;210;39433;-36
2023/10/30 11:39:51;;;;;;;;;;;;;;;;;;112400;210;42655;-36
2023/10/30 11:42:40;;;;;;;;;;;;;;;;;;112451;210;41594;-36
2023/10/30 11:45:19;;;;;;;;;;;;;;;;;;112534;210;38873;-36
2023/10/30 11:47:56;;;;;;;;;;;;;;;;;;112531;210;40968;-36
2023/10/30 11:50:47;;;;;;;;;;;;;;;;;;112538;210;42795;-36
2023/10/30 11:53:21;;;;;;;;;;;;;;;;;;112508;210;42658;-37
2023/10/30 11:55:58;;;;;;;;;;;;;;;;;;112530;210;39015;-36
2023/10/30 11:58:36;;;;;;;;;;;;;;;;;;112552;210;40680;-36
2023/10/30 12:01:16;;;;;;;;;;;;;;;;;;112540;210;43163;-36
2023/10/30 12:03:53;;;;;;;;;;;;;;;;;;112492;210;43309;-36
2023/10/30 12:06:32;;;;;;;;;;;;;;;;;;112530;210;39868;-37
2023/10/30 12:09:09;;;;;;;;;;;;;;;;;;112500;210;40869;-36
2023/10/30 12:11:49;;;;;;;;;;;;;;;;;;112501;210;44067;-37
2023/10/30 12:14:24;;;;;;;;;;;;;;;;;;112388;210;42927;-35
2023/10/30 12:16:56;;;;;;;;;;;;;;;;;;112505;210;38880;-35
2023/10/30 12:19:28;;;;;;;;;;;;;;;;;;112544;210;39672;-37
2023/10/30 12:22:02;;;;;;;;;;;;;;;;;;112506;210;43723;-36
2023/10/30 12:24:41;;;;;;;;;;;;;;;;;;112414;210;48898;-36
2023/10/30 12:27:25;;;;;;;;;;;;;;;;;;112585;210;38776;-37
2023/10/30 12:30:14;;;;;;;;;;;;;;;;;;112471;210;39593;-38
2023/10/30 12:32:57;;;;;;;;;;;;;;;;;;112452;210;42807;-36
2023/10/30 12:35:40;;;;;;;;;;;;;;;;;;112390;210;41632;-35
2023/10/30 12:38:17;;;;;;;;;;;;;;;;;;112428;210;39100;-37
2023/10/30 12:40:53;;;;;;;;;;;;;;;;;;112464;210;40118;-38
2023/10/30 12:43:33;;;;;;;;;;;;;;;;;;112418;210;42864;-36
2023/10/30 12:46:09;;;;;;;;;;;;;;;;;;112499;210;43405;-36
2023/10/30 12:48:44;;;;;;;;;;;;;;;;;;112344;210;192048;-36
2023/10/30 12:51:21;;;;;;;;;;;;;;;;;;112469;210;39659;-36
2023/10/30 12:53:54;;;;;;;;;;;;;;;;;;112477;210;42831;-36
2023/10/30 12:56:29;;;;;;;;;;;;;;;;;;112473;210;42276;-36
2023/10/30 12:59:06;;;;;;;;;;;;;;;;;;112448;210;38630;-36
2023/10/30 13:01:41;;;;;;;;;;;;;;;;;;112468;210;39749;-36
2023/10/30 13:04:32;;;;;;;;;;;;;;;;;;112402;210;43159;-36
2023/10/30 13:07:07;;;;;;;;;;;;;;;;;;112498;210;41705;-36
2023/10/30 13:09:40;;;;;;;;;;;;;;;;;;112362;210;175555;-36
2023/10/30 13:12:13;;;;;;;;;;;;;;;;;;112432;210;39773;-36
2023/10/30 13:14:51;;;;;;;;;;;;;;;;;;112442;210;42916;-36
2023/10/30 13:17:27;;;;;;;;;;;;;;;;;;112467;210;41620;-36
2023/10/30 13:20:05;;;;;;;;;;;;;;;;;;112456;210;38793;-36
2023/10/30 13:22:41;;;;;;;;;;;;;;;;;;112375;210;175570;-36
2023/10/30 13:25:16;;;;;;;;;;;;;;;;;;112453;210;42795;-36
2023/10/30 13:27:53;;;;;;;;;;;;;;;;;;112483;210;41447;-36
2023/10/30 13:30:28;;;;;;;;;;;;;;;;;;112454;210;39309;-36
2023/10/30 13:33:04;;;;;;;;;;;;;;;;;;112481;210;39352;-36
2023/10/30 13:35:48;;;;;;;;;;;;;;;;;;112417;210;43001;-36
2023/10/30 13:38:21;;;;;;;;;;;;;;;;;;112335;210;175638;-36
2023/10/30 13:40:55;;;;;;;;;;;;;;;;;;112484;210;38736;-36
2023/10/30 13:43:31;;;;;;;;;;;;;;;;;;112456;210;42052;-36
2023/10/30 13:46:04;;;;;;;;;;;;;;;;;;112446;210;42582;-35
2023/10/30 13:48:41;;;;;;;;;;;;;;;;;;112505;210;41781;-36
2023/10/30 13:51:19;;;;;;;;;;;;;;;;;;112363;210;175558;-37
2023/10/30 13:54:00;;;;;;;;;;;;;;;;;;112439;210;39523;-37
2023/10/30 13:56:37;;;;;;;;;;;;;;;;;;112390;210;48285;-36
2023/10/30 13:59:11;;;;;;;;;;;;;;;;;;112471;210;41775;-37
2023/10/30 14:01:50;;;;;;;;;;;;;;;;;;112450;210;38869;-36
2023/10/30 14:04:27;;;;;;;;;;;;;;;;;;112464;210;39666;-36
2023/10/30 14:07:03;;;;;;;;;;;;;;;;;;112449;210;49534;-37
2023/10/30 14:09:41;;;;;;;;;;;;;;;;;;112437;210;41615;-41
2023/10/30 14:12:15;;;;;;;;;;;;;;;;;;112423;210;38688;-42
2023/10/30 14:14:51;;;;;;;;;;;;;;;;;;112452;210;40755;-38
2023/10/30 14:17:26;;;;;;;;;;;;;;;;;;112546;210;48987;-39
2023/10/30 14:20:00;;;;;;;;;;;;;;;;;;112520;210;42914;-39
2023/10/30 14:22:37;;;;;;;;;;;;;;;;;;112407;210;38702;-38
2023/10/30 14:25:13;;;;;;;;;;;;;;;;;;112444;210;39725;-37
2023/10/30 14:27:47;;;;;;;;;;;;;;;;;;112496;210;48462;-37
2023/10/30 14:30:20;;;;;;;;;;;;;;;;;;112456;210;42870;-42
2023/10/30 14:32:52;;;;;;;;;;;;;;;;;;112461;210;38716;-38
2023/10/30 14:35:27;;;;;;;;;;;;;;;;;;112450;210;39641;-37
2023/10/30 14:38:01;;;;;;;;;;;;;;;;;;112537;210;49277;-37
2023/10/30 14:40:35;;;;;;;;;;;;;;;;;;112418;210;42316;-36
2023/10/30 14:43:13;;;;;;;;;;;;;;;;;;112349;210;39817;-36
2023/10/30 14:45:48;;;;;;;;;;;;;;;;;;112451;210;39621;-36
2023/10/30 14:48:25;;;;;;;;;;;;;;;;;;112485;210;50209;-36
2023/10/30 14:50:59;;;;;;;;;;;;;;;;;;112419;210;41856;-36
2023/10/30 14:53:36;;;;;;;;;;;;;;;;;;112399;210;40074;-37
2023/10/30 14:56:13;;;;;;;;;;;;;;;;;;112346;210;40854;-37
2023/10/30 14:58:47;;;;;;;;;;;;;;;;;;112456;210;44323;-37
2023/10/30 15:01:23;;;;;;;;;;;;;;;;;;112410;210;42178;-37
2023/10/30 15:03:57;;;;;;;;;;;;;;;;;;112388;210;38669;-37
2023/10/30 15:06:29;;;;;;;;;;;;;;;;;;112348;210;39465;-37
2023/10/30 15:09:08;;;;;;;;;;;;;;;;;;112429;210;44302;-37
2023/10/30 15:11:42;;;;;;;;;;;;;;;;;;112391;210;41839;-37
2023/10/30 15:14:14;;;;;;;;;;;;;;;;;;112401;210;38920;-37
2023/10/30 15:16:52;;;;;;;;;;;;;;;;;;112330;210;40818;-37
2023/10/30 15:19:27;;;;;;;;;;;;;;;;;;112381;210;44913;-37
2023/10/30 15:22:07;;;;;;;;;;;;;;;;;;112366;210;42229;-37
2023/10/30 15:24:43;;;;;;;;;;;;;;;;;;112394;210;38909;-37
2023/10/30 15:27:18;;;;;;;;;;;;;;;;;;112383;210;40996;-37
2023/10/30 15:29:56;;;;;;;;;;;;;;;;;;112422;210;42703;-37
2023/10/30 15:32:29;;;;;;;;;;;;;;;;;;112395;210;41482;-37
2023/10/30 15:35:03;;;;;;;;;;;;;;;;;;112444;210;38910;-37
2023/10/30 15:37:40;;;;;;;;;;;;;;;;;;112460;210;39398;-37
2023/10/30 15:40:16;;;;;;;;;;;;;;;;;;112515;210;42948;-37
2023/10/30 15:42:54;;;;;;;;;;;;;;;;;;112508;210;41814;-37
2023/10/30 15:45:29;;;;;;;;;;;;;;;;;;112485;210;38677;-37
2023/10/30 15:48:03;;;;;;;;;;;;;;;;;;112445;210;39573;-37
2023/10/30 15:50:40;;;;;;;;;;;;;;;;;;112505;210;42892;-37
2023/10/30 15:53:14;;;;;;;;;;;;;;;;;;112489;210;41718;-37
2023/10/30 15:55:50;;;;;;;;;;;;;;;;;;112530;210;39928;-37
2023/10/30 15:58:22;;;;;;;;;;;;;;;;;;112307;210;175341;-37
2023/10/30 16:00:58;;;;;;;;;;;;;;;;;;112460;210;43112;-37
2023/10/30 16:03:39;;;;;;;;;;;;;;;;;;112530;210;41626;-37
2023/10/30 16:06:14;;;;;;;;;;;;;;;;;;112553;210;38656;-37
2023/10/30 16:08:50;;;;;;;;;;;;;;;;;;112504;210;39590;-37
2023/10/30 16:11:23;;;;;;;;;;;;;;;;;;112536;210;43099;-37
2023/10/30 16:13:58;;;;;;;;;;;;;;;;;;112491;210;41927;-37
2023/10/30 16:16:33;;;;;;;;;;;;;;;;;;112528;210;38691;-37
2023/10/30 16:19:06;;;;;;;;;;;;;;;;;;112474;210;39851;-37
2023/10/30 16:21:45;;;;;;;;;;;;;;;;;;112483;210;42809;-37
2023/10/30 16:24:20;;;;;;;;;;;;;;;;;;112422;210;41751;-37
2023/10/30 16:26:56;;;;;;;;;;;;;;;;;;112535;210;39008;-37
2023/10/30 16:29:30;;;;;;;;;;;;;;;;;;112512;210;40663;-37
2023/10/30 16:32:06;;;;;;;;;;;;;;;;;;112529;210;44211;-37
2023/10/30 16:34:41;;;;;;;;;;;;;;;;;;112514;210;42886;-37
2023/10/30 16:37:16;;;;;;;;;;;;;;;;;;112497;210;39826;-37
2023/10/30 16:39:52;;;;;;;;;;;;;;;;;;112493;210;39396;-37
2023/10/30 16:42:27;;;;;;;;;;;;;;;;;;112500;210;43005;-37
2023/10/30 16:45:01;;;;;;;;;;;;;;;;;;112351;210;175596;-37
2023/10/30 16:47:41;;;;;;;;;;;;;;;;;;112457;210;40006;-37
2023/10/30 16:50:18;;;;;;;;;;;;;;;;;;112377;210;40816;-37
2023/10/30 16:52:50;;;;;;;;;;;;;;;;;;112510;210;42818;-37
2023/10/30 16:55:23;;;;;;;;;;;;;;;;;;112483;210;42885;-37
2023/10/30 16:57:57;;;;;;;;;;;;;;;;;;112520;210;38797;-37
2023/10/30 17:00:32;;;;;;;;;;;;;;;;;;112489;210;40043;-37
2023/10/30 17:03:04;;;;;;;;;;;;;;;;;;112457;210;44572;-37
2023/10/30 17:05:40;;;;;;;;;;;;;;;;;;112487;210;43005;-37
2023/10/30 17:08:14;;;;;;;;;;;;;;;;;;112485;210;39227;-37
2023/10/30 17:10:48;;;;;;;;;;;;;;;;;;112500;210;40823;-37
2023/10/30 17:13:26;;;;;;;;;;;;;;;;;;112478;210;42773;-37
2023/10/30 17:16:02;;;;;;;;;;;;;;;;;;112514;210;41553;-37
2023/10/30 17:18:35;;;;;;;;;;;;;;;;;;112517;210;38860;-37
2023/10/30 17:21:13;;;;;;;;;;;;;;;;;;112459;210;45420;-37
2023/10/30 17:23:47;;;;;;;;;;;;;;;;;;112506;210;43075;-37
2023/10/30 17:26:19;;;;;;;;;;;;;;;;;;112490;210;41873;-37
2023/10/30 17:28:52;;;;;;;;;;;;;;;;;;112419;210;38937;-37
2023/10/30 17:31:31;;;;;;;;;;;;;;;;;;112432;210;46484;-37
2023/10/30 17:34:08;;;;;;;;;;;;;;;;;;112428;210;42774;-37
2023/10/30 17:36:42;;;;;;;;;;;;;;;;;;112463;210;42749;-37
2023/10/30 17:39:15;;;;;;;;;;;;;;;;;;112412;210;38725;-37
2023/10/30 17:41:49;;;;;;;;;;;;;;;;;;112474;210;39774;-37